sensor_id;sensor_type;location;lat;lon;timestamp;temperature;humidity
7117;DHT22;3600;48.568;7.870;2023-03-01T00:01:29;0.30;99.90
7117;DHT22;3600;48.568;7.870;2023-03-01T00:03:57;0.30;99.90
7117;DHT22;3600;48.568;7.870;2023-03-01T00:06:24;0.40;99.90
7117;DHT22;3600;48.568;7.870;2023-03-01T00:08:51;0.20;99.90
7117;DHT22;3600;48.568;7.870;2023-03-01T00:11:27;0.20;99.90
7117;DHT22;3600;48.568;7.870;2023-03-01T00:13:57;0.40;99.90
7117;DHT22;3600;48.568;7.870;2023-03-01T00:18:54;0.40;99.90
7117;DHT22;3600;48.568;7.870;2023-03-01T00:21:22;0.30;99.90
7117;DHT22;3600;48.568;7.870;2023-03-01T00:23:49;0.10;99.90
7117;DHT22;3600;48.568;7.870;2023-03-01T00:26:17;0.00;99.90
7117;DHT22;3600;48.568;7.870;2023-03-01T00:28:45;0.10;99.90
7117;DHT22;3600;48.568;7.870;2023-03-01T00:31:16;-0.10;99.90
7117;DHT22;3600;48.568;7.870;2023-03-01T00:33:43;-0.10;99.90
7117;DHT22;3600;48.568;7.870;2023-03-01T00:36:12;0.00;99.90
7117;DHT22;3600;48.568;7.870;2023-03-01T00:38:42;0.00;99.90
7117;DHT22;3600;48.568;7.870;2023-03-01T00:41:15;0.20;99.90
7117;DHT22;3600;48.568;7.870;2023-03-01T00:43:44;0.10;99.90
7117;DHT22;3600;48.568;7.870;2023-03-01T00:46:16;0.00;99.90
7117;DHT22;3600;48.568;7.870;2023-03-01T00:48:44;-0.10;99.90
7117;DHT22;3600;48.568;7.870;2023-03-01T00:51:16;0.00;99.90
7117;DHT22;3600;48.568;7.870;2023-03-01T00:53:44;-0.10;99.90
7117;DHT22;3600;48.568;7.870;2023-03-01T00:56:13;-0.10;99.90
7117;DHT22;3600;48.568;7.870;2023-03-01T00:58:40;0.00;99.90
7117;DHT22;3600;48.568;7.870;2023-03-01T01:01:12;0.00;99.90
7117;DHT22;3600;48.568;7.870;2023-03-01T01:03:51;0.00;99.90
7117;DHT22;3600;48.568;7.870;2023-03-01T01:06:30;0.00;99.90
7117;DHT22;3600;48.568;7.870;2023-03-01T01:08:58;-0.10;99.90
7117;DHT22;3600;48.568;7.870;2023-03-01T01:11:27;-0.10;99.90
7117;DHT22;3600;48.568;7.870;2023-03-01T01:13:54;-0.20;99.90
7117;DHT22;3600;48.568;7.870;2023-03-01T01:16:23;-0.30;99.90
7117;DHT22;3600;48.568;7.870;2023-03-01T01:18:50;-0.10;99.90
7117;DHT22;3600;48.568;7.870;2023-03-01T01:21:19;-0.20;99.90
7117;DHT22;3600;48.568;7.870;2023-03-01T01:23:47;-0.30;99.90
7117;DHT22;3600;48.568;7.870;2023-03-01T01:26:16;-0.30;99.90
7117;DHT22;3600;48.568;7.870;2023-03-01T01:28:43;-0.20;99.90
7117;DHT22;3600;48.568;7.870;2023-03-01T01:31:10;-0.10;99.90
7117;DHT22;3600;48.568;7.870;2023-03-01T01:33:38;-0.20;99.90
7117;DHT22;3600;48.568;7.870;2023-03-01T01:36:06;-0.20;99.90
7117;DHT22;3600;48.568;7.870;2023-03-01T01:38:33;-0.20;99.90
7117;DHT22;3600;48.568;7.870;2023-03-01T01:41:00;-0.10;99.90
7117;DHT22;3600;48.568;7.870;2023-03-01T01:43:30;0.10;99.90
7117;DHT22;3600;48.568;7.870;2023-03-01T01:46:06;-0.10;99.90
7117;DHT22;3600;48.568;7.870;2023-03-01T01:48:43;-0.10;99.90
7117;DHT22;3600;48.568;7.870;2023-03-01T01:51:19;-0.20;99.90
7117;DHT22;3600;48.568;7.870;2023-03-01T01:53:48;-0.10;99.90
7117;DHT22;3600;48.568;7.870;2023-03-01T01:56:18;-0.20;99.90
7117;DHT22;3600;48.568;7.870;2023-03-01T01:58:47;-0.40;99.90
7117;DHT22;3600;48.568;7.870;2023-03-01T02:01:14;-0.50;99.90
7117;DHT22;3600;48.568;7.870;2023-03-01T02:03:42;-0.50;99.90
7117;DHT22;3600;48.568;7.870;2023-03-01T02:06:18;-0.40;99.90
7117;DHT22;3600;48.568;7.870;2023-03-01T02:08:47;-0.20;99.90
7117;DHT22;3600;48.568;7.870;2023-03-01T02:11:15;-0.30;99.90
7117;DHT22;3600;48.568;7.870;2023-03-01T02:13:42;-0.50;99.90
7117;DHT22;3600;48.568;7.870;2023-03-01T02:16:18;-0.40;99.90
7117;DHT22;3600;48.568;7.870;2023-03-01T02:18:45;-0.40;99.90
7117;DHT22;3600;48.568;7.870;2023-03-01T02:27:07;-0.40;99.90
7117;DHT22;3600;48.568;7.870;2023-03-01T02:29:34;-0.40;99.90
7117;DHT22;3600;48.568;7.870;2023-03-01T02:32:02;-0.50;99.90
7117;DHT22;3600;48.568;7.870;2023-03-01T02:34:31;-0.40;99.90
7117;DHT22;3600;48.568;7.870;2023-03-01T02:37:07;-0.30;99.90
7117;DHT22;3600;48.568;7.870;2023-03-01T02:39:48;-0.40;99.90
7117;DHT22;3600;48.568;7.870;2023-03-01T02:42:22;-0.40;99.90
7117;DHT22;3600;48.568;7.870;2023-03-01T02:44:52;-0.40;99.90
7117;DHT22;3600;48.568;7.870;2023-03-01T02:47:20;-0.60;99.90
7117;DHT22;3600;48.568;7.870;2023-03-01T02:49:47;-0.60;99.90
7117;DHT22;3600;48.568;7.870;2023-03-01T02:55:10;-0.50;99.90
7117;DHT22;3600;48.568;7.870;2023-03-01T02:57:40;-0.40;99.90
7117;DHT22;3600;48.568;7.870;2023-03-01T03:00:13;-0.60;99.90
7117;DHT22;3600;48.568;7.870;2023-03-01T03:02:47;-0.50;99.90
7117;DHT22;3600;48.568;7.870;2023-03-01T03:05:29;-0.60;99.90
7117;DHT22;3600;48.568;7.870;2023-03-01T03:07:57;-0.50;99.90
7117;DHT22;3600;48.568;7.870;2023-03-01T03:10:30;-0.50;99.90
7117;DHT22;3600;48.568;7.870;2023-03-01T03:13:03;-0.50;99.90
7117;DHT22;3600;48.568;7.870;2023-03-01T03:15:30;-0.60;99.90
7117;DHT22;3600;48.568;7.870;2023-03-01T03:17:58;-0.60;99.90
7117;DHT22;3600;48.568;7.870;2023-03-01T03:20:27;-0.50;99.90
7117;DHT22;3600;48.568;7.870;2023-03-01T03:22:56;-0.60;99.90
7117;DHT22;3600;48.568;7.870;2023-03-01T03:25:23;-0.60;99.90
7117;DHT22;3600;48.568;7.870;2023-03-01T03:27:52;-0.70;99.90
7117;DHT22;3600;48.568;7.870;2023-03-01T03:30:31;-0.80;99.90
7117;DHT22;3600;48.568;7.870;2023-03-01T03:32:58;-0.70;99.90
7117;DHT22;3600;48.568;7.870;2023-03-01T03:35:31;-0.60;99.90
7117;DHT22;3600;48.568;7.870;2023-03-01T03:38:09;-0.60;99.90
7117;DHT22;3600;48.568;7.870;2023-03-01T03:41:00;-0.70;99.90
7117;DHT22;3600;48.568;7.870;2023-03-01T03:43:31;-0.60;99.90
7117;DHT22;3600;48.568;7.870;2023-03-01T03:45:58;-0.60;99.90
7117;DHT22;3600;48.568;7.870;2023-03-01T03:48:26;-0.60;99.90
7117;DHT22;3600;48.568;7.870;2023-03-01T03:50:55;-0.80;99.90
7117;DHT22;3600;48.568;7.870;2023-03-01T03:53:24;-0.70;99.90
7117;DHT22;3600;48.568;7.870;2023-03-01T03:55:51;-0.60;99.90
7117;DHT22;3600;48.568;7.870;2023-03-01T03:58:20;-0.80;99.90
7117;DHT22;3600;48.568;7.870;2023-03-01T04:00:49;-0.70;99.90
7117;DHT22;3600;48.568;7.870;2023-03-01T04:03:17;-0.50;99.90
7117;DHT22;3600;48.568;7.870;2023-03-01T04:05:45;-0.60;99.90
7117;DHT22;3600;48.568;7.870;2023-03-01T04:08:13;-0.80;99.90
7117;DHT22;3600;48.568;7.870;2023-03-01T04:10:42;-0.80;99.90
7117;DHT22;3600;48.568;7.870;2023-03-01T04:13:11;-0.90;99.90
7117;DHT22;3600;48.568;7.870;2023-03-01T04:15:39;-0.90;99.90
7117;DHT22;3600;48.568;7.870;2023-03-01T04:18:07;-0.80;99.90
7117;DHT22;3600;48.568;7.870;2023-03-01T04:20:35;-0.90;99.90
7117;DHT22;3600;48.568;7.870;2023-03-01T04:23:09;-0.90;99.90
7117;DHT22;3600;48.568;7.870;2023-03-01T04:25:42;-1.00;99.90
7117;DHT22;3600;48.568;7.870;2023-03-01T04:28:11;-1.10;99.90
7117;DHT22;3600;48.568;7.870;2023-03-01T04:30:38;-1.00;99.90
7117;DHT22;3600;48.568;7.870;2023-03-01T04:33:07;-1.10;99.90
7117;DHT22;3600;48.568;7.870;2023-03-01T04:35:35;-1.00;99.90
7117;DHT22;3600;48.568;7.870;2023-03-01T04:38:05;-1.00;99.90
7117;DHT22;3600;48.568;7.870;2023-03-01T04:40:32;-1.00;99.90
7117;DHT22;3600;48.568;7.870;2023-03-01T04:42:59;-0.90;99.90
7117;DHT22;3600;48.568;7.870;2023-03-01T04:45:26;-1.00;99.90
7117;DHT22;3600;48.568;7.870;2023-03-01T04:47:54;-1.10;99.90
7117;DHT22;3600;48.568;7.870;2023-03-01T04:50:21;-1.00;99.90
7117;DHT22;3600;48.568;7.870;2023-03-01T04:52:50;-1.00;99.90
7117;DHT22;3600;48.568;7.870;2023-03-01T04:55:17;-0.80;99.90
7117;DHT22;3600;48.568;7.870;2023-03-01T04:57:43;-0.80;99.90
7117;DHT22;3600;48.568;7.870;2023-03-01T05:00:12;-0.80;99.90
7117;DHT22;3600;48.568;7.870;2023-03-01T05:02:57;-0.70;99.90
7117;DHT22;3600;48.568;7.870;2023-03-01T05:05:33;-1.00;99.90
7117;DHT22;3600;48.568;7.870;2023-03-01T05:08:02;-1.40;99.90
7117;DHT22;3600;48.568;7.870;2023-03-01T05:10:30;-1.00;99.90
7117;DHT22;3600;48.568;7.870;2023-03-01T05:12:58;-1.00;99.90
7117;DHT22;3600;48.568;7.870;2023-03-01T05:15:27;-1.40;99.90
7117;DHT22;3600;48.568;7.870;2023-03-01T05:17:56;-1.40;99.90
7117;DHT22;3600;48.568;7.870;2023-03-01T05:20:31;-1.40;99.90
7117;DHT22;3600;48.568;7.870;2023-03-01T05:22:59;-1.30;99.90
7117;DHT22;3600;48.568;7.870;2023-03-01T05:25:27;-1.20;99.90
7117;DHT22;3600;48.568;7.870;2023-03-01T05:28:03;-1.00;99.90
7117;DHT22;3600;48.568;7.870;2023-03-01T05:30:32;-1.10;99.90
7117;DHT22;3600;48.568;7.870;2023-03-01T05:33:00;-1.30;99.90
7117;DHT22;3600;48.568;7.870;2023-03-01T05:35:27;-1.30;99.90
7117;DHT22;3600;48.568;7.870;2023-03-01T05:37:55;-1.40;99.90
7117;DHT22;3600;48.568;7.870;2023-03-01T05:40:23;-1.00;99.90
7117;DHT22;3600;48.568;7.870;2023-03-01T05:42:54;-1.00;99.90
7117;DHT22;3600;48.568;7.870;2023-03-01T05:45:22;-1.00;99.90
7117;DHT22;3600;48.568;7.870;2023-03-01T05:47:49;-0.90;99.90
7117;DHT22;3600;48.568;7.870;2023-03-01T05:50:23;-1.00;99.90
7117;DHT22;3600;48.568;7.870;2023-03-01T05:55:24;-0.90;99.90
7117;DHT22;3600;48.568;7.870;2023-03-01T05:57:53;-1.30;99.90
7117;DHT22;3600;48.568;7.870;2023-03-01T06:00:20;-1.30;99.90
7117;DHT22;3600;48.568;7.870;2023-03-01T06:02:49;-1.40;99.90
7117;DHT22;3600;48.568;7.870;2023-03-01T06:05:17;-1.40;99.90
7117;DHT22;3600;48.568;7.870;2023-03-01T06:07:44;-1.20;99.90
7117;DHT22;3600;48.568;7.870;2023-03-01T06:10:12;-1.10;99.90
7117;DHT22;3600;48.568;7.870;2023-03-01T06:12:40;-1.30;99.90
7117;DHT22;3600;48.568;7.870;2023-03-01T06:15:08;-1.40;99.90
7117;DHT22;3600;48.568;7.870;2023-03-01T06:17:40;-1.40;99.90
7117;DHT22;3600;48.568;7.870;2023-03-01T06:22:35;-1.50;99.90
7117;DHT22;3600;48.568;7.870;2023-03-01T06:25:03;-1.30;99.90
7117;DHT22;3600;48.568;7.870;2023-03-01T06:27:30;-1.50;99.90
7117;DHT22;3600;48.568;7.870;2023-03-01T06:29:57;-1.60;99.90
7117;DHT22;3600;48.568;7.870;2023-03-01T06:32:24;-1.50;99.90
7117;DHT22;3600;48.568;7.870;2023-03-01T06:34:51;-1.20;99.90
7117;DHT22;3600;48.568;7.870;2023-03-01T06:37:18;-1.10;99.90
7117;DHT22;3600;48.568;7.870;2023-03-01T06:39:44;-1.40;99.90
7117;DHT22;3600;48.568;7.870;2023-03-01T06:42:11;-1.20;99.90
7117;DHT22;3600;48.568;7.870;2023-03-01T06:44:38;-1.00;99.90
7117;DHT22;3600;48.568;7.870;2023-03-01T06:47:05;-1.20;99.90
7117;DHT22;3600;48.568;7.870;2023-03-01T06:49:31;-0.90;99.90
7117;DHT22;3600;48.568;7.870;2023-03-01T06:51:58;-1.30;99.90
7117;DHT22;3600;48.568;7.870;2023-03-01T06:54:25;-1.40;99.90
7117;DHT22;3600;48.568;7.870;2023-03-01T06:56:52;-1.40;99.90
7117;DHT22;3600;48.568;7.870;2023-03-01T06:59:19;-1.40;99.90
7117;DHT22;3600;48.568;7.870;2023-03-01T07:01:46;-1.30;99.90
7117;DHT22;3600;48.568;7.870;2023-03-01T07:04:13;-1.20;99.90
7117;DHT22;3600;48.568;7.870;2023-03-01T07:06:40;-1.40;99.90
7117;DHT22;3600;48.568;7.870;2023-03-01T07:09:07;-1.30;99.90
7117;DHT22;3600;48.568;7.870;2023-03-01T07:11:34;-1.30;99.90
7117;DHT22;3600;48.568;7.870;2023-03-01T07:14:01;-1.10;99.90
7117;DHT22;3600;48.568;7.870;2023-03-01T07:16:28;-1.20;99.90
7117;DHT22;3600;48.568;7.870;2023-03-01T07:18:55;-1.00;99.90
7117;DHT22;3600;48.568;7.870;2023-03-01T07:21:23;-0.90;99.90
7117;DHT22;3600;48.568;7.870;2023-03-01T07:23:50;-1.00;99.90
7117;DHT22;3600;48.568;7.870;2023-03-01T07:26:17;-0.80;99.90
7117;DHT22;3600;48.568;7.870;2023-03-01T07:28:44;-0.80;99.90
7117;DHT22;3600;48.568;7.870;2023-03-01T07:31:11;-0.80;99.90
7117;DHT22;3600;48.568;7.870;2023-03-01T07:33:38;-0.90;99.90
7117;DHT22;3600;48.568;7.870;2023-03-01T07:36:05;-0.80;99.90
7117;DHT22;3600;48.568;7.870;2023-03-01T07:38:32;-0.60;99.90
7117;DHT22;3600;48.568;7.870;2023-03-01T07:41:02;-0.60;99.90
7117;DHT22;3600;48.568;7.870;2023-03-01T07:43:30;-0.80;99.90
7117;DHT22;3600;48.568;7.870;2023-03-01T07:46:04;-0.70;99.90
7117;DHT22;3600;48.568;7.870;2023-03-01T07:48:32;-0.60;99.90
7117;DHT22;3600;48.568;7.870;2023-03-01T07:51:04;-0.60;99.90
7117;DHT22;3600;48.568;7.870;2023-03-01T07:53:31;-0.50;99.90
7117;DHT22;3600;48.568;7.870;2023-03-01T07:56:11;-0.50;99.90
7117;DHT22;3600;48.568;7.870;2023-03-01T07:58:41;-0.40;99.90
7117;DHT22;3600;48.568;7.870;2023-03-01T08:01:11;-0.40;99.90
7117;DHT22;3600;48.568;7.870;2023-03-01T08:03:39;-0.40;99.90
7117;DHT22;3600;48.568;7.870;2023-03-01T08:06:08;-0.20;99.90
7117;DHT22;3600;48.568;7.870;2023-03-01T08:08:35;-0.30;99.90
7117;DHT22;3600;48.568;7.870;2023-03-01T08:11:03;-0.30;99.90
7117;DHT22;3600;48.568;7.870;2023-03-01T08:13:31;-0.10;99.90
7117;DHT22;3600;48.568;7.870;2023-03-01T08:16:10;-0.10;99.90
7117;DHT22;3600;48.568;7.870;2023-03-01T08:18:38;-0.10;99.90
7117;DHT22;3600;48.568;7.870;2023-03-01T08:21:07;0.00;99.90
7117;DHT22;3600;48.568;7.870;2023-03-01T08:23:34;-0.10;99.90
7117;DHT22;3600;48.568;7.870;2023-03-01T08:26:13;-0.10;99.90
7117;DHT22;3600;48.568;7.870;2023-03-01T08:28:40;0.00;99.90
7117;DHT22;3600;48.568;7.870;2023-03-01T08:31:24;0.10;99.90
7117;DHT22;3600;48.568;7.870;2023-03-01T08:33:54;0.20;99.90
7117;DHT22;3600;48.568;7.870;2023-03-01T08:36:26;0.30;99.90
7117;DHT22;3600;48.568;7.870;2023-03-01T08:38:55;0.40;99.90
7117;DHT22;3600;48.568;7.870;2023-03-01T08:41:22;0.40;99.90
7117;DHT22;3600;48.568;7.870;2023-03-01T08:43:50;0.60;99.90
7117;DHT22;3600;48.568;7.870;2023-03-01T08:46:16;0.70;99.90
7117;DHT22;3600;48.568;7.870;2023-03-01T08:48:43;0.70;99.90
7117;DHT22;3600;48.568;7.870;2023-03-01T08:51:12;0.80;99.90
7117;DHT22;3600;48.568;7.870;2023-03-01T08:53:40;0.80;99.90
7117;DHT22;3600;48.568;7.870;2023-03-01T08:56:08;0.90;99.90
7117;DHT22;3600;48.568;7.870;2023-03-01T08:58:35;1.00;99.90
7117;DHT22;3600;48.568;7.870;2023-03-01T09:01:14;1.00;99.90
7117;DHT22;3600;48.568;7.870;2023-03-01T09:03:42;1.10;99.90
7117;DHT22;3600;48.568;7.870;2023-03-01T09:06:09;1.10;99.90
7117;DHT22;3600;48.568;7.870;2023-03-01T09:08:38;1.10;99.90
7117;DHT22;3600;48.568;7.870;2023-03-01T09:11:06;1.10;99.90
7117;DHT22;3600;48.568;7.870;2023-03-01T09:13:34;1.20;99.90
7117;DHT22;3600;48.568;7.870;2023-03-01T09:16:03;1.20;99.90
7117;DHT22;3600;48.568;7.870;2023-03-01T09:18:31;1.30;99.90
7117;DHT22;3600;48.568;7.870;2023-03-01T09:21:06;1.40;99.90
7117;DHT22;3600;48.568;7.870;2023-03-01T09:23:39;1.40;99.90
7117;DHT22;3600;48.568;7.870;2023-03-01T09:26:10;1.40;99.90
7117;DHT22;3600;48.568;7.870;2023-03-01T09:28:38;1.40;99.90
7117;DHT22;3600;48.568;7.870;2023-03-01T09:31:05;1.50;99.90
7117;DHT22;3600;48.568;7.870;2023-03-01T09:33:33;1.60;99.90
7117;DHT22;3600;48.568;7.870;2023-03-01T09:36:05;1.70;99.90
7117;DHT22;3600;48.568;7.870;2023-03-01T09:38:34;1.60;99.90
7117;DHT22;3600;48.568;7.870;2023-03-01T09:41:01;1.70;99.90
7117;DHT22;3600;48.568;7.870;2023-03-01T09:43:51;1.80;99.90
7117;DHT22;3600;48.568;7.870;2023-03-01T09:46:23;1.80;99.90
7117;DHT22;3600;48.568;7.870;2023-03-01T09:48:56;2.10;99.90
7117;DHT22;3600;48.568;7.870;2023-03-01T09:51:32;2.00;99.90
7117;DHT22;3600;48.568;7.870;2023-03-01T09:54:02;2.00;99.90
7117;DHT22;3600;48.568;7.870;2023-03-01T09:59:52;2.20;99.90
7117;DHT22;3600;48.568;7.870;2023-03-01T10:02:44;2.20;99.90
7117;DHT22;3600;48.568;7.870;2023-03-01T10:05:38;2.20;99.90
7117;DHT22;3600;48.568;7.870;2023-03-01T10:10:39;2.40;99.90
7117;DHT22;3600;48.568;7.870;2023-03-01T10:13:17;2.40;99.90
7117;DHT22;3600;48.568;7.870;2023-03-01T10:15:52;2.50;99.90
7117;DHT22;3600;48.568;7.870;2023-03-01T10:18:25;2.50;99.90
7117;DHT22;3600;48.568;7.870;2023-03-01T10:21:17;2.50;99.90
7117;DHT22;3600;48.568;7.870;2023-03-01T10:23:44;2.60;99.90
7117;DHT22;3600;48.568;7.870;2023-03-01T10:29:08;2.70;99.90
7117;DHT22;3600;48.568;7.870;2023-03-01T10:31:44;2.80;99.90
7117;DHT22;3600;48.568;7.870;2023-03-01T10:34:29;2.80;99.90
7117;DHT22;3600;48.568;7.870;2023-03-01T10:37:09;2.90;99.90
7117;DHT22;3600;48.568;7.870;2023-03-01T10:39:36;3.00;99.90
7117;DHT22;3600;48.568;7.870;2023-03-01T10:42:05;3.10;99.90
7117;DHT22;3600;48.568;7.870;2023-03-01T10:44:47;3.20;99.90
7117;DHT22;3600;48.568;7.870;2023-03-01T10:47:23;3.10;99.90
7117;DHT22;3600;48.568;7.870;2023-03-01T10:49:59;3.20;99.90
7117;DHT22;3600;48.568;7.870;2023-03-01T10:57:44;3.50;99.90
7117;DHT22;3600;48.568;7.870;2023-03-01T11:00:17;3.60;99.90
7117;DHT22;3600;48.568;7.870;2023-03-01T11:03:13;3.70;99.90
7117;DHT22;3600;48.568;7.870;2023-03-01T11:05:56;3.80;99.90
7117;DHT22;3600;48.568;7.870;2023-03-01T11:13:55;3.80;99.90
7117;DHT22;3600;48.568;7.870;2023-03-01T11:16:38;4.10;99.90
7117;DHT22;3600;48.568;7.870;2023-03-01T11:24:16;4.20;99.90
7117;DHT22;3600;48.568;7.870;2023-03-01T11:26:50;4.20;99.90
7117;DHT22;3600;48.568;7.870;2023-03-01T11:29:35;4.30;99.90
7117;DHT22;3600;48.568;7.870;2023-03-01T11:32:14;4.40;99.90
7117;DHT22;3600;48.568;7.870;2023-03-01T11:35:05;4.50;99.90
7117;DHT22;3600;48.568;7.870;2023-03-01T11:37:41;4.60;99.90
7117;DHT22;3600;48.568;7.870;2023-03-01T11:40:12;4.60;99.90
7117;DHT22;3600;48.568;7.870;2023-03-01T11:42:50;4.70;99.90
7117;DHT22;3600;48.568;7.870;2023-03-01T11:45:22;4.90;99.90
7117;DHT22;3600;48.568;7.870;2023-03-01T11:50:46;4.90;99.90
7117;DHT22;3600;48.568;7.870;2023-03-01T11:56:42;5.00;99.90
7117;DHT22;3600;48.568;7.870;2023-03-01T12:02:25;5.40;99.90
7117;DHT22;3600;48.568;7.870;2023-03-01T12:08:05;5.50;99.90
7117;DHT22;3600;48.568;7.870;2023-03-01T12:16:26;5.50;99.30
7117;DHT22;3600;48.568;7.870;2023-03-01T12:19:27;5.70;99.20
7117;DHT22;3600;48.568;7.870;2023-03-01T12:28:02;5.90;98.90
7117;DHT22;3600;48.568;7.870;2023-03-01T12:30:49;5.80;99.00
7117;DHT22;3600;48.568;7.870;2023-03-01T12:38:50;6.30;99.70
7117;DHT22;3600;48.568;7.870;2023-03-01T12:41:42;6.30;99.50
7117;DHT22;3600;48.568;7.870;2023-03-01T12:49:23;6.30;98.90
7117;DHT22;3600;48.568;7.870;2023-03-01T12:52:08;6.50;98.60
7117;DHT22;3600;48.568;7.870;2023-03-01T12:54:37;6.60;99.10
7117;DHT22;3600;48.568;7.870;2023-03-01T12:57:21;6.80;98.50
7117;DHT22;3600;48.568;7.870;2023-03-01T13:03:31;6.40;98.70
7117;DHT22;3600;48.568;7.870;2023-03-01T13:06:25;6.40;98.30
7117;DHT22;3600;48.568;7.870;2023-03-01T13:09:19;6.50;99.00
7117;DHT22;3600;48.568;7.870;2023-03-01T13:11:49;6.50;97.90
7117;DHT22;3600;48.568;7.870;2023-03-01T13:16:53;6.70;98.90
7117;DHT22;3600;48.568;7.870;2023-03-01T13:19:25;6.70;98.20
7117;DHT22;3600;48.568;7.870;2023-03-01T13:21:53;6.70;97.80
7117;DHT22;3600;48.568;7.870;2023-03-01T13:29:48;6.80;98.10
7117;DHT22;3600;48.568;7.870;2023-03-01T13:32:26;7.00;98.30
7117;DHT22;3600;48.568;7.870;2023-03-01T13:37:46;7.10;98.00
7117;DHT22;3600;48.568;7.870;2023-03-01T13:42:45;7.20;97.70
7117;DHT22;3600;48.568;7.870;2023-03-01T13:45:36;7.10;97.90
7117;DHT22;3600;48.568;7.870;2023-03-01T13:48:17;7.20;98.30
7117;DHT22;3600;48.568;7.870;2023-03-01T13:50:49;7.20;97.50
7117;DHT22;3600;48.568;7.870;2023-03-01T13:53:19;7.30;97.60
7117;DHT22;3600;48.568;7.870;2023-03-01T13:56:01;7.40;98.00
7117;DHT22;3600;48.568;7.870;2023-03-01T13:58:33;7.30;97.10
7117;DHT22;3600;48.568;7.870;2023-03-01T14:01:03;7.20;97.20
7117;DHT22;3600;48.568;7.870;2023-03-01T14:03:32;7.30;98.00
7117;DHT22;3600;48.568;7.870;2023-03-01T14:06:15;7.10;96.90
7117;DHT22;3600;48.568;7.870;2023-03-01T14:08:49;7.30;97.20
7117;DHT22;3600;48.568;7.870;2023-03-01T14:19:31;7.20;97.20
7117;DHT22;3600;48.568;7.870;2023-03-01T14:22:21;7.50;96.80
7117;DHT22;3600;48.568;7.870;2023-03-01T14:25:01;7.30;97.80
7117;DHT22;3600;48.568;7.870;2023-03-01T14:27:35;7.40;97.00
7117;DHT22;3600;48.568;7.870;2023-03-01T14:30:27;7.30;97.40
7117;DHT22;3600;48.568;7.870;2023-03-01T14:32:56;7.60;97.10
7117;DHT22;3600;48.568;7.870;2023-03-01T14:35:30;7.20;97.10
7117;DHT22;3600;48.568;7.870;2023-03-01T14:37:58;7.30;97.10
7117;DHT22;3600;48.568;7.870;2023-03-01T14:40:36;7.40;97.40
7117;DHT22;3600;48.568;7.870;2023-03-01T14:43:11;7.40;97.40
7117;DHT22;3600;48.568;7.870;2023-03-01T14:45:38;7.10;97.30
7117;DHT22;3600;48.568;7.870;2023-03-01T14:48:06;7.30;97.30
7117;DHT22;3600;48.568;7.870;2023-03-01T14:50:34;7.20;97.20
7117;DHT22;3600;48.568;7.870;2023-03-01T14:53:05;7.20;97.40
7117;DHT22;3600;48.568;7.870;2023-03-01T14:55:38;7.30;97.70
7117;DHT22;3600;48.568;7.870;2023-03-01T14:58:17;7.40;97.10
7117;DHT22;3600;48.568;7.870;2023-03-01T15:00:59;7.30;97.70
7117;DHT22;3600;48.568;7.870;2023-03-01T15:06:05;7.30;97.60
7117;DHT22;3600;48.568;7.870;2023-03-01T15:08:33;7.20;97.80
7117;DHT22;3600;48.568;7.870;2023-03-01T15:11:17;7.30;97.60
7117;DHT22;3600;48.568;7.870;2023-03-01T15:13:44;7.20;97.70
7117;DHT22;3600;48.568;7.870;2023-03-01T15:16:24;7.20;97.00
7117;DHT22;3600;48.568;7.870;2023-03-01T15:21:30;7.00;97.40
7117;DHT22;3600;48.568;7.870;2023-03-01T15:26:43;6.90;97.10
7117;DHT22;3600;48.568;7.870;2023-03-01T15:29:18;7.10;97.20
7117;DHT22;3600;48.568;7.870;2023-03-01T15:31:58;7.10;97.00
7117;DHT22;3600;48.568;7.870;2023-03-01T15:34:27;7.30;97.40
7117;DHT22;3600;48.568;7.870;2023-03-01T15:36:56;7.10;97.40
7117;DHT22;3600;48.568;7.870;2023-03-01T15:39:43;7.00;97.40
7117;DHT22;3600;48.568;7.870;2023-03-01T15:45:30;7.30;97.50
7117;DHT22;3600;48.568;7.870;2023-03-01T15:47:58;7.10;97.30
7117;DHT22;3600;48.568;7.870;2023-03-01T15:50:32;7.10;97.40
7117;DHT22;3600;48.568;7.870;2023-03-01T15:53:09;7.00;97.40
7117;DHT22;3600;48.568;7.870;2023-03-01T15:55:37;7.10;97.60
7117;DHT22;3600;48.568;7.870;2023-03-01T15:58:15;7.10;97.70
7117;DHT22;3600;48.568;7.870;2023-03-01T16:00:44;7.00;97.50
7117;DHT22;3600;48.568;7.870;2023-03-01T16:03:25;6.80;97.40
7117;DHT22;3600;48.568;7.870;2023-03-01T16:05:52;6.80;97.60
7117;DHT22;3600;48.568;7.870;2023-03-01T16:08:19;6.70;97.30
7117;DHT22;3600;48.568;7.870;2023-03-01T16:10:46;6.60;97.70
7117;DHT22;3600;48.568;7.870;2023-03-01T16:13:14;6.60;97.70
7117;DHT22;3600;48.568;7.870;2023-03-01T16:15:41;6.60;97.80
7117;DHT22;3600;48.568;7.870;2023-03-01T16:18:08;6.60;97.70
7117;DHT22;3600;48.568;7.870;2023-03-01T16:20:37;6.60;98.00
7117;DHT22;3600;48.568;7.870;2023-03-01T16:23:07;6.60;98.30
7117;DHT22;3600;48.568;7.870;2023-03-01T16:25:35;6.50;98.10
7117;DHT22;3600;48.568;7.870;2023-03-01T16:28:03;6.40;98.50
7117;DHT22;3600;48.568;7.870;2023-03-01T16:30:38;6.40;98.10
7117;DHT22;3600;48.568;7.870;2023-03-01T16:33:08;6.30;98.10
7117;DHT22;3600;48.568;7.870;2023-03-01T16:35:55;6.30;98.40
7117;DHT22;3600;48.568;7.870;2023-03-01T16:38:22;6.20;98.40
7117;DHT22;3600;48.568;7.870;2023-03-01T16:40:50;6.30;98.40
7117;DHT22;3600;48.568;7.870;2023-03-01T16:43:17;6.10;98.40
7117;DHT22;3600;48.568;7.870;2023-03-01T16:45:44;6.10;98.70
7117;DHT22;3600;48.568;7.870;2023-03-01T16:48:12;6.10;98.30
7117;DHT22;3600;48.568;7.870;2023-03-01T16:50:39;6.00;98.40
7117;DHT22;3600;48.568;7.870;2023-03-01T16:53:06;6.00;98.70
7117;DHT22;3600;48.568;7.870;2023-03-01T16:55:33;6.00;98.90
7117;DHT22;3600;48.568;7.870;2023-03-01T16:58:00;5.90;98.90
7117;DHT22;3600;48.568;7.870;2023-03-01T17:00:28;5.80;99.30
7117;DHT22;3600;48.568;7.870;2023-03-01T17:02:55;5.80;98.80
7117;DHT22;3600;48.568;7.870;2023-03-01T17:05:22;5.70;98.90
7117;DHT22;3600;48.568;7.870;2023-03-01T17:07:50;5.80;99.20
7117;DHT22;3600;48.568;7.870;2023-03-01T17:10:17;5.80;98.80
7117;DHT22;3600;48.568;7.870;2023-03-01T17:12:48;5.60;99.00
7117;DHT22;3600;48.568;7.870;2023-03-01T17:15:15;5.60;98.80
7117;DHT22;3600;48.568;7.870;2023-03-01T17:17:42;5.50;98.90
7117;DHT22;3600;48.568;7.870;2023-03-01T17:20:09;5.50;99.10
7117;DHT22;3600;48.568;7.870;2023-03-01T17:22:36;5.50;99.10
7117;DHT22;3600;48.568;7.870;2023-03-01T17:25:03;5.50;99.00
7117;DHT22;3600;48.568;7.870;2023-03-01T17:27:30;5.50;98.90
7117;DHT22;3600;48.568;7.870;2023-03-01T17:30:02;5.40;99.10
7117;DHT22;3600;48.568;7.870;2023-03-01T17:32:29;5.50;99.20
7117;DHT22;3600;48.568;7.870;2023-03-01T17:34:57;5.40;98.80
7117;DHT22;3600;48.568;7.870;2023-03-01T17:37:23;5.40;99.00
7117;DHT22;3600;48.568;7.870;2023-03-01T17:39:50;5.30;99.30
7117;DHT22;3600;48.568;7.870;2023-03-01T17:42:17;5.20;99.50
7117;DHT22;3600;48.568;7.870;2023-03-01T17:44:43;5.20;99.30
7117;DHT22;3600;48.568;7.870;2023-03-01T17:47:10;5.20;99.60
7117;DHT22;3600;48.568;7.870;2023-03-01T17:49:37;5.20;99.50
7117;DHT22;3600;48.568;7.870;2023-03-01T17:52:04;5.10;99.90
7117;DHT22;3600;48.568;7.870;2023-03-01T17:54:31;5.10;99.80
7117;DHT22;3600;48.568;7.870;2023-03-01T17:56:59;5.10;99.70
7117;DHT22;3600;48.568;7.870;2023-03-01T17:59:26;5.10;99.70
7117;DHT22;3600;48.568;7.870;2023-03-01T18:01:59;5.00;99.70
7117;DHT22;3600;48.568;7.870;2023-03-01T18:04:28;5.00;99.90
7117;DHT22;3600;48.568;7.870;2023-03-01T18:06:55;5.00;99.90
7117;DHT22;3600;48.568;7.870;2023-03-01T18:09:21;4.90;99.90
7117;DHT22;3600;48.568;7.870;2023-03-01T18:11:48;4.90;99.70
7117;DHT22;3600;48.568;7.870;2023-03-01T18:14:15;4.80;99.90
7117;DHT22;3600;48.568;7.870;2023-03-01T18:16:44;4.80;99.90
7117;DHT22;3600;48.568;7.870;2023-03-01T18:19:11;4.80;99.90
7117;DHT22;3600;48.568;7.870;2023-03-01T18:21:38;4.80;99.90
7117;DHT22;3600;48.568;7.870;2023-03-01T18:24:05;4.80;99.90
7117;DHT22;3600;48.568;7.870;2023-03-01T18:26:32;4.80;99.90